createdAt,value
2019-04-16T00:02:19.852Z,70.80
2019-04-16T00:04:58.474Z,70.90
2019-04-16T00:07:45.357Z,71.00
2019-04-16T00:10:39.693Z,70.90
2019-04-16T00:13:18.741Z,70.80
2019-04-16T00:15:48.282Z,70.70
2019-04-16T00:18:18.776Z,70.80
2019-04-16T00:21:11.049Z,70.60
2019-04-16T00:24:02.712Z,70.40
2019-04-16T00:26:32.216Z,70.20
2019-04-16T00:29:02.899Z,70.30
2019-04-16T00:31:34.285Z,70.20
2019-04-16T00:34:04.434Z,70.00
2019-04-16T00:36:33.900Z,70.10
2019-04-16T00:39:03.598Z,70.30
2019-04-16T00:41:33.367Z,70.30
2019-04-16T00:44:02.604Z,70.10
2019-04-16T00:46:31.812Z,70.10
2019-04-16T00:49:01.331Z,70.40
2019-04-16T00:51:30.647Z,70.10
2019-04-16T00:53:59.941Z,70.00
2019-04-16T00:56:29.243Z,70.30
2019-04-16T00:58:58.590Z,70.20
2019-04-16T01:01:27.815Z,70.40
2019-04-16T01:03:57.107Z,70.50
2019-04-16T01:06:26.720Z,70.70
2019-04-16T01:08:55.892Z,70.80
2019-04-16T01:11:25.526Z,71.10
2019-04-16T01:13:55.682Z,71.20
2019-04-16T01:16:26.271Z,71.50
2019-04-16T01:18:55.512Z,71.60
2019-04-16T01:21:24.772Z,71.50
2019-04-16T01:23:53.995Z,71.50
2019-04-16T01:26:24.196Z,71.50
2019-04-16T01:29:06.096Z,71.50
2019-04-16T01:32:07.420Z,71.50
2019-04-16T01:35:01.147Z,71.40
2019-04-16T01:37:39.378Z,71.50
2019-04-16T01:40:09.310Z,70.90
2019-04-16T01:42:38.619Z,70.80
2019-04-16T01:45:08.289Z,70.70
2019-04-16T01:47:37.536Z,70.30
2019-04-16T01:50:07.311Z,70.30
2019-04-16T01:52:36.532Z,70.40
2019-04-16T01:55:05.997Z,70.30
2019-04-16T01:57:35.286Z,70.40
2019-04-16T02:00:08.097Z,70.70
2019-04-16T02:02:37.615Z,70.40
2019-04-16T02:05:07.029Z,70.80
2019-04-16T02:07:36.262Z,71.00
2019-04-16T02:10:07.535Z,71.20
2019-04-16T02:12:36.781Z,71.20
2019-04-16T02:15:06.475Z,71.50
2019-04-16T02:17:35.707Z,71.80
2019-04-16T02:20:06.867Z,72.00
2019-04-16T02:22:36.232Z,72.40
2019-04-16T02:25:06.224Z,72.30
2019-04-16T02:27:35.558Z,72.30
2019-04-16T02:30:05.921Z,72.50
2019-04-16T02:32:35.692Z,72.40
2019-04-16T02:35:05.325Z,72.40
2019-04-16T02:37:36.446Z,72.60
2019-04-16T02:40:06.910Z,72.70
2019-04-16T02:42:36.332Z,73.00
2019-04-16T02:45:05.892Z,73.10
2019-04-16T02:47:40.045Z,73.10
2019-04-16T02:50:08.693Z,73.10
2019-04-16T02:53:01.339Z,73.40
2019-04-16T02:55:44.181Z,73.70
2019-04-16T02:58:17.953Z,73.90
2019-04-16T03:01:24.495Z,74.20
2019-04-16T03:03:58.702Z,74.30
2019-04-16T03:06:31.646Z,74.30
2019-04-16T03:08:59.302Z,74.10
2019-04-16T03:11:28.528Z,74.10
2019-04-16T03:13:59.367Z,74.10
2019-04-16T03:16:46.669Z,74.50
2019-04-16T03:19:21.030Z,74.70
2019-04-16T03:21:50.255Z,74.90
2019-04-16T03:24:19.756Z,75.10
2019-04-16T03:26:50.549Z,75.10
2019-04-16T03:29:19.999Z,75.30
2019-04-16T03:31:57.298Z,75.60
2019-04-16T03:34:22.059Z,75.70
2019-04-16T03:36:51.693Z,76.00
2019-04-16T03:39:20.956Z,76.00
2019-04-16T03:41:50.195Z,76.00
2019-04-16T03:44:19.727Z,76.20
2019-04-16T03:46:49.020Z,76.10
2019-04-16T03:49:18.522Z,76.20
2019-04-16T03:51:47.741Z,76.20
2019-04-16T03:54:18.859Z,76.20
2019-04-16T03:56:48.783Z,76.20
2019-04-16T03:59:20.137Z,76.30
2019-04-16T04:01:49.418Z,76.40
2019-04-16T04:04:18.748Z,76.40
2019-04-16T04:06:48.237Z,76.50
2019-04-16T04:09:18.838Z,76.60
2019-04-16T04:11:48.725Z,76.50
2019-04-16T04:14:22.096Z,76.80
2019-04-16T04:16:48.964Z,76.90
2019-04-16T04:19:18.344Z,77.30
2019-04-16T04:21:50.548Z,77.40
2019-04-16T04:24:20.649Z,77.60
2019-04-16T04:26:49.930Z,77.80
2019-04-16T04:29:20.713Z,77.70
2019-04-16T04:31:51.192Z,77.60
2019-04-16T04:34:21.309Z,77.60
2019-04-16T04:36:50.661Z,77.80
2019-04-16T04:39:20.668Z,78.00
2019-04-16T04:41:52.614Z,78.30
2019-04-16T04:44:21.073Z,78.30
2019-04-16T04:46:50.240Z,78.00
2019-04-16T04:49:19.803Z,78.10
2019-04-16T04:51:49.373Z,77.80
2019-04-16T04:54:22.029Z,77.70
2019-04-16T04:56:49.864Z,78.10
2019-04-16T04:59:19.148Z,79.00
2019-04-16T05:01:48.321Z,79.30
2019-04-16T05:04:42.663Z,78.90
2019-04-16T05:07:12.189Z,78.20
2019-04-16T05:09:41.443Z,78.10
2019-04-16T05:12:10.717Z,77.70
2019-04-16T05:14:51.047Z,77.50
2019-04-16T05:17:20.771Z,77.60
2019-04-16T05:19:50.225Z,77.50
2019-04-16T05:22:21.794Z,77.40
2019-04-16T05:24:52.517Z,77.10
2019-04-16T05:27:22.080Z,77.20
2019-04-16T05:29:51.248Z,76.70
2019-04-16T05:32:20.485Z,76.40
2019-04-16T05:34:49.868Z,76.50
2019-04-16T05:37:19.951Z,76.30
2019-04-16T05:39:50.592Z,76.00
2019-04-16T05:42:24.791Z,76.10
2019-04-16T05:44:51.432Z,75.90
2019-04-16T05:47:20.949Z,75.60
2019-04-16T05:49:50.211Z,75.50
2019-04-16T05:52:19.643Z,75.40
2019-04-16T05:55:03.491Z,75.20
2019-04-16T05:57:35.249Z,75.10
2019-04-16T06:00:10.064Z,74.60
2019-04-16T06:02:42.138Z,74.80
2019-04-16T06:05:17.402Z,74.60
2019-04-16T06:07:47.165Z,74.40
2019-04-16T06:10:17.783Z,73.90
2019-04-16T06:13:02.033Z,73.70
2019-04-16T06:15:41.231Z,73.50
2019-04-16T06:18:29.410Z,73.30
2019-04-16T06:21:09.754Z,73.30
2019-04-16T06:24:03.131Z,73.30
2019-04-16T06:26:44.455Z,73.30
2019-04-16T06:29:43.393Z,72.40
2019-04-16T06:32:34.575Z,72.40
2019-04-16T06:35:28.041Z,73.30
2019-04-16T06:38:06.220Z,73.30
2019-04-16T06:41:03.224Z,72.80
2019-04-16T06:43:35.884Z,72.60
2019-04-16T06:46:27.305Z,73.00
2019-04-16T06:49:30.552Z,72.40
2019-04-16T06:52:24.472Z,72.60
2019-04-16T06:55:15.721Z,73.10
2019-04-16T06:58:02.626Z,72.70
2019-04-16T07:00:49.954Z,71.50
2019-04-16T07:03:34.274Z,71.40
2019-04-16T07:06:08.471Z,71.30
2019-04-16T07:08:50.080Z,70.80
2019-04-16T07:11:19.567Z,70.50
2019-04-16T07:13:48.864Z,70.40
2019-04-16T07:16:18.355Z,70.00
2019-04-16T07:18:47.552Z,70.50
2019-04-16T07:21:17.528Z,70.70
2019-04-16T07:23:47.839Z,70.20
2019-04-16T07:26:17.723Z,69.50
2019-04-16T07:29:02.227Z,69.50
2019-04-16T07:31:38.463Z,69.10
2019-04-16T07:34:32.890Z,69.20
2019-04-16T07:37:09.771Z,65.80
2019-04-16T07:39:58.489Z,63.20
2019-04-16T07:42:51.220Z,63.70
2019-04-16T07:45:26.059Z,61.40
2019-04-16T07:48:13.113Z,62.00
2019-04-16T07:51:13.373Z,62.50
2019-04-16T07:54:02.513Z,62.00
2019-04-16T07:56:31.596Z,61.70
2019-04-16T07:59:01.789Z,61.60
2019-04-16T08:01:31.651Z,61.00
2019-04-16T08:04:02.619Z,61.20
2019-04-16T08:06:32.148Z,61.00
2019-04-16T08:09:01.355Z,60.40
2019-04-16T08:11:31.884Z,60.60
2019-04-16T08:14:08.634Z,61.70
2019-04-16T08:16:46.603Z,59.70
2019-04-16T08:19:06.413Z,60.50
2019-04-16T08:21:35.888Z,60.80
2019-04-16T08:24:17.039Z,60.70
2019-04-16T08:26:46.625Z,59.00
2019-04-16T08:29:15.937Z,59.50
2019-04-16T08:31:46.969Z,59.10
2019-04-16T08:34:16.457Z,58.70
2019-04-16T08:36:45.668Z,57.90
2019-04-16T08:39:15.298Z,58.20
2019-04-16T08:41:44.556Z,58.50
2019-04-16T08:44:13.802Z,57.80
2019-04-16T08:46:43.075Z,57.40
2019-04-16T08:49:15.264Z,58.10
2019-04-16T08:51:44.441Z,56.20
2019-04-16T08:54:17.679Z,57.20
2019-04-16T08:56:44.597Z,57.60
2019-04-16T08:59:13.875Z,56.00
2019-04-16T09:01:43.096Z,56.60
2019-04-16T09:04:12.393Z,54.30
2019-04-16T09:06:42.609Z,54.20
2019-04-16T09:09:40.472Z,52.20
2019-04-16T09:12:10.298Z,54.70
2019-04-16T09:14:43.782Z,54.30
2019-04-16T09:17:24.812Z,53.00
2019-04-16T09:20:07.245Z,53.80
2019-04-16T09:22:48.745Z,53.10
2019-04-16T09:25:29.266Z,52.50
2019-04-16T09:28:07.661Z,51.60
2019-04-16T09:30:53.223Z,51.80
2019-04-16T09:33:40.035Z,50.50
2019-04-16T09:36:15.306Z,53.70
2019-04-16T09:38:47.367Z,51.90
2019-04-16T09:41:25.812Z,49.40
2019-04-16T09:43:58.062Z,49.10
2019-04-16T09:46:49.705Z,49.50
2019-04-16T09:48:58.987Z,50.50
2019-04-16T09:51:29.094Z,50.70
2019-04-16T09:53:58.292Z,49.00
2019-04-16T09:56:29.689Z,49.00
2019-04-16T09:59:03.311Z,47.80
2019-04-16T10:01:44.663Z,52.50
2019-04-16T10:04:16.487Z,51.40
2019-04-16T10:06:46.007Z,47.60
2019-04-16T10:09:19.832Z,50.60
2019-04-16T10:11:46.880Z,47.20
2019-04-16T10:14:16.892Z,49.70
2019-04-16T10:16:46.456Z,48.10
2019-04-16T10:19:15.712Z,49.10
2019-04-16T10:21:44.958Z,47.00
2019-04-16T10:24:35.665Z,48.40
2019-04-16T10:27:05.034Z,47.50
2019-04-16T10:29:34.888Z,46.70
2019-04-16T10:32:04.260Z,44.70
2019-04-16T10:34:36.281Z,45.80
2019-04-16T10:37:07.338Z,48.90
2019-04-16T10:39:42.167Z,44.80
2019-04-16T10:42:22.679Z,44.00
2019-04-16T10:45:09.543Z,46.80
2019-04-16T10:47:53.379Z,46.00
2019-04-16T10:50:56.517Z,46.60
2019-04-16T10:53:50.475Z,42.90
2019-04-16T10:56:37.163Z,45.20
2019-04-16T10:59:28.459Z,43.70
2019-04-16T11:02:19.457Z,42.10
2019-04-16T11:04:54.673Z,42.20
2019-04-16T11:07:26.450Z,40.30
2019-04-16T11:09:56.359Z,39.80
2019-04-16T11:12:25.913Z,40.90
2019-04-16T11:14:55.171Z,38.20
2019-04-16T11:17:26.033Z,39.20
2019-04-16T11:19:59.856Z,39.60
2019-04-16T11:22:27.713Z,36.60
2019-04-16T11:24:57.027Z,39.30
2019-04-16T11:27:26.494Z,42.30
2019-04-16T11:29:56.000Z,43.60
2019-04-16T11:32:27.710Z,36.90
2019-04-16T11:34:57.294Z,39.30
2019-04-16T11:37:26.545Z,36.10
2019-04-16T11:39:55.738Z,35.60
2019-04-16T11:42:25.057Z,37.30
2019-04-16T11:44:56.929Z,40.20
2019-04-16T11:47:28.002Z,37.10
2019-04-16T11:49:57.108Z,34.10
2019-04-16T11:52:27.489Z,34.60
2019-04-16T11:54:56.767Z,30.10
2019-04-16T11:57:26.380Z,26.00
2019-04-16T12:00:06.708Z,25.00
2019-04-16T12:02:45.947Z,25.20
2019-04-16T12:05:30.266Z,22.90
2019-04-16T12:08:25.359Z,23.10
2019-04-16T12:11:16.317Z,23.40
2019-04-16T12:13:53.567Z,23.30
2019-04-16T12:16:39.483Z,21.40
2019-04-16T12:19:26.538Z,21.40
2019-04-16T12:22:04.531Z,20.20
2019-04-16T12:24:55.493Z,22.50
2019-04-16T12:27:42.415Z,21.20
2019-04-16T12:30:29.603Z,20.00
2019-04-16T12:33:17.846Z,20.70
2019-04-16T12:36:15.268Z,19.40
2019-04-16T12:38:58.615Z,20.10
2019-04-16T12:41:41.024Z,22.80
2019-04-16T12:44:25.920Z,20.60
2019-04-16T12:47:12.637Z,18.10
2019-04-16T12:49:59.506Z,20.00
2019-04-16T12:52:51.909Z,20.80
2019-04-16T12:55:55.929Z,20.50
2019-04-16T12:58:43.199Z,19.80
2019-04-16T13:01:36.335Z,21.30
2019-04-16T13:04:27.214Z,20.90
2019-04-16T13:07:18.094Z,22.00
2019-04-16T13:10:16.215Z,22.20
2019-04-16T13:12:59.766Z,23.80
2019-04-16T13:15:40.947Z,23.20
2019-04-16T13:18:29.409Z,24.50
2019-04-16T13:21:17.337Z,25.10
2019-04-16T13:24:09.173Z,23.80
2019-04-16T13:26:56.150Z,23.30
2019-04-16T13:29:29.591Z,22.00
2019-04-16T13:31:57.552Z,23.50
2019-04-16T13:34:26.889Z,24.40
2019-04-16T13:36:59.259Z,24.20
2019-04-16T13:39:42.582Z,23.40
2019-04-16T13:42:11.850Z,23.80
2019-04-16T13:44:45.233Z,27.30
2019-04-16T13:47:14.773Z,26.60
2019-04-16T13:49:49.052Z,23.70
2019-04-16T13:52:24.940Z,25.60
2019-04-16T13:55:09.913Z,25.10
2019-04-16T13:57:38.544Z,25.30
2019-04-16T14:00:22.475Z,25.60
2019-04-16T14:02:57.743Z,25.30
2019-04-16T14:05:26.930Z,26.20
2019-04-16T14:07:56.484Z,27.70
2019-04-16T14:10:25.741Z,27.00
2019-04-16T14:12:55.001Z,27.80
2019-04-16T14:15:32.286Z,23.10
2019-04-16T14:17:59.746Z,22.70
2019-04-16T14:20:29.092Z,23.70
2019-04-16T14:22:58.707Z,27.40
2019-04-16T14:25:28.896Z,32.10
2019-04-16T14:28:02.007Z,32.60
2019-04-16T14:30:35.611Z,33.80
2019-04-16T14:33:07.116Z,33.40
2019-04-16T14:35:40.261Z,31.90
2019-04-16T14:38:09.893Z,32.20
2019-04-16T14:40:41.925Z,31.80
2019-04-16T14:43:11.403Z,31.70
2019-04-16T14:45:57.683Z,32.50
2019-04-16T14:48:18.174Z,33.20
2019-04-16T14:50:47.409Z,36.20
2019-04-16T14:53:51.169Z,37.60
2019-04-16T14:56:27.840Z,36.00
2019-04-16T14:59:08.457Z,35.80
2019-04-16T15:01:45.664Z,37.20
2019-04-16T15:04:23.669Z,39.00
2019-04-16T15:07:24.087Z,36.40
2019-04-16T15:10:04.829Z,36.20
2019-04-16T15:12:44.512Z,35.80
2019-04-16T15:15:21.698Z,37.40
2019-04-16T15:18:02.980Z,38.30
2019-04-16T15:20:51.133Z,38.00
2019-04-16T15:23:36.194Z,39.50
2019-04-16T15:26:22.820Z,39.20
2019-04-16T15:29:17.028Z,37.30
2019-04-16T15:32:04.112Z,37.70
2019-04-16T15:34:42.083Z,39.90
2019-04-16T15:37:13.659Z,41.20
2019-04-16T15:40:07.241Z,43.20
2019-04-16T15:42:52.402Z,43.20
2019-04-16T15:45:39.915Z,43.30
2019-04-16T15:48:27.347Z,40.80
2019-04-16T15:51:15.217Z,38.70
2019-04-16T15:53:50.534Z,39.30
2019-04-16T15:56:39.693Z,40.40
2019-04-16T15:59:14.491Z,41.50
2019-04-16T16:02:02.966Z,41.90
2019-04-16T16:04:43.897Z,40.60
2019-04-16T16:07:23.979Z,40.20
2019-04-16T16:10:19.170Z,40.40
2019-04-16T16:12:50.833Z,39.70
2019-04-16T16:15:19.338Z,39.80
2019-04-16T16:17:48.605Z,40.90
2019-04-16T16:20:17.773Z,39.60
2019-04-16T16:22:47.030Z,39.30
2019-04-16T16:25:16.598Z,40.10
2019-04-16T16:27:47.181Z,41.10
2019-04-16T16:30:18.068Z,40.90
2019-04-16T16:32:49.173Z,41.30
2019-04-16T16:35:18.438Z,41.30
2019-04-16T16:37:47.611Z,42.30
2019-04-16T16:40:18.066Z,41.80
2019-04-16T16:42:47.304Z,42.90
2019-04-16T16:45:21.505Z,43.40
2019-04-16T16:47:50.745Z,43.20
2019-04-16T16:50:19.974Z,45.00
2019-04-16T16:53:06.421Z,43.20
2019-04-16T16:55:39.397Z,43.60
2019-04-16T16:58:39.458Z,44.80
2019-04-16T17:01:35.038Z,45.80
2019-04-16T17:04:11.809Z,47.20
2019-04-16T17:06:41.000Z,48.20
2019-04-16T17:09:17.802Z,48.60
2019-04-16T17:11:47.019Z,49.50
2019-04-16T17:14:18.155Z,50.70
2019-04-16T17:16:47.738Z,51.40
2019-04-16T17:19:17.260Z,52.50
2019-04-16T17:21:47.031Z,53.10
2019-04-16T17:24:16.309Z,54.00
2019-04-16T17:26:46.907Z,54.50
2019-04-16T17:29:16.585Z,55.00
2019-04-16T17:31:45.884Z,54.90
2019-04-16T17:34:15.126Z,55.10
2019-04-16T17:36:44.289Z,55.50
2019-04-16T17:39:15.239Z,56.00
2019-04-16T17:41:51.346Z,56.80
2019-04-16T17:44:50.572Z,56.30
2019-04-16T17:47:33.214Z,56.50
2019-04-16T17:50:17.327Z,56.80
2019-04-16T17:53:04.928Z,57.00
2019-04-16T17:55:52.145Z,57.40
2019-04-16T17:58:31.469Z,57.70
2019-04-16T18:01:32.099Z,57.70
2019-04-16T18:04:20.280Z,58.20
2019-04-16T18:07:08.581Z,58.70
2019-04-16T18:09:44.310Z,58.90
2019-04-16T18:12:36.378Z,59.10
2019-04-16T18:15:24.944Z,59.10
2019-04-16T18:18:07.464Z,59.40
2019-04-16T18:20:56.826Z,59.70
2019-04-16T18:23:39.779Z,60.20
2019-04-16T18:26:31.431Z,60.50
2019-04-16T18:29:03.907Z,60.70
2019-04-16T18:31:56.389Z,60.80
2019-04-16T18:34:40.237Z,60.50
2019-04-16T18:37:32.639Z,60.40
2019-04-16T18:40:23.528Z,60.50
2019-04-16T18:43:17.840Z,61.00
2019-04-16T18:46:15.437Z,60.60
2019-04-16T18:48:45.639Z,60.70
2019-04-16T18:51:15.257Z,61.00
2019-04-16T18:53:44.569Z,61.30
2019-04-16T18:56:14.185Z,61.60
2019-04-16T18:58:44.046Z,62.10
2019-04-16T19:01:17.603Z,62.10
2019-04-16T19:03:47.188Z,62.90
2019-04-16T19:06:16.985Z,63.10
2019-04-16T19:08:46.644Z,63.30
2019-04-16T19:11:16.325Z,64.20
2019-04-16T19:13:48.575Z,64.30
2019-04-16T19:16:21.611Z,63.70
2019-04-16T19:18:51.089Z,64.40
2019-04-16T19:21:20.447Z,63.90
2019-04-16T19:23:53.474Z,64.30
2019-04-16T19:26:22.835Z,64.30
2019-04-16T19:28:52.136Z,64.80
2019-04-16T19:31:23.080Z,65.20
2019-04-16T19:34:26.177Z,65.70
2019-04-16T19:36:59.569Z,66.10
2019-04-16T19:39:29.774Z,67.10
2019-04-16T19:42:06.122Z,67.40
2019-04-16T19:44:39.692Z,67.70
2019-04-16T19:47:29.400Z,68.30
2019-04-16T19:50:15.160Z,68.60
2019-04-16T19:52:45.692Z,69.10
2019-04-16T19:55:15.337Z,69.10
2019-04-16T19:57:44.909Z,69.40
2019-04-16T20:00:14.657Z,69.50
2019-04-16T20:02:44.480Z,69.90
2019-04-16T20:05:15.382Z,70.10
2019-04-16T20:07:45.896Z,70.10
2019-04-16T20:10:15.678Z,69.90
2019-04-16T20:12:45.138Z,69.70
2019-04-16T20:15:14.784Z,70.00
2019-04-16T20:17:44.547Z,70.00
2019-04-16T20:20:13.887Z,70.00
2019-04-16T20:22:44.515Z,70.00
2019-04-16T20:25:14.428Z,70.20
2019-04-16T20:27:43.774Z,70.60
2019-04-16T20:30:14.746Z,70.60
2019-04-16T20:32:44.353Z,70.40
2019-04-16T20:35:17.931Z,70.70
2019-04-16T20:37:44.727Z,70.90
2019-04-16T20:40:17.727Z,71.10
2019-04-16T20:42:47.333Z,71.20
2019-04-16T20:45:16.730Z,71.70
2019-04-16T20:47:46.486Z,71.60
2019-04-16T20:50:20.505Z,71.70
2019-04-16T20:52:49.335Z,72.00
2019-04-16T20:55:18.695Z,72.10
2019-04-16T20:57:47.964Z,72.70
2019-04-16T21:00:22.198Z,72.80
2019-04-16T21:02:51.919Z,72.80
2019-04-16T21:05:22.670Z,73.00
2019-04-16T21:07:52.376Z,73.00
2019-04-16T21:10:22.036Z,73.40
2019-04-16T21:12:54.719Z,73.40
2019-04-16T21:15:23.689Z,73.40
2019-04-16T21:17:53.691Z,73.50
2019-04-16T21:20:22.926Z,74.00
2019-04-16T21:22:52.498Z,74.00
2019-04-16T21:25:21.738Z,74.20
2019-04-16T21:27:57.703Z,74.20
2019-04-16T21:30:27.178Z,74.70
2019-04-16T21:33:02.648Z,74.80
2019-04-16T21:35:37.765Z,75.40
2019-04-16T21:38:34.840Z,76.00
2019-04-16T21:41:04.098Z,76.70
2019-04-16T21:43:35.693Z,77.10
2019-04-16T21:46:04.704Z,77.90
2019-04-16T21:48:34.335Z,78.40
2019-04-16T21:51:03.747Z,78.40
2019-04-16T21:53:36.402Z,78.60
2019-04-16T21:56:08.214Z,78.90
2019-04-16T21:58:36.944Z,79.10
2019-04-16T22:01:35.833Z,79.30
2019-04-16T22:04:14.420Z,79.20
2019-04-16T22:06:42.921Z,79.70
2019-04-16T22:09:12.357Z,79.80
2019-04-16T22:11:44.313Z,80.00
2019-04-16T22:14:13.045Z,80.20
2019-04-16T22:16:45.595Z,80.30
2019-04-16T22:19:16.565Z,80.50
2019-04-16T22:21:46.289Z,80.70
2019-04-16T22:24:15.755Z,80.50
2019-04-16T22:26:45.051Z,80.50
2019-04-16T22:29:15.745Z,80.50
2019-04-16T22:31:45.483Z,80.60
2019-04-16T22:34:14.834Z,81.60
2019-04-16T22:36:44.039Z,83.10
2019-04-16T22:39:36.496Z,82.80
2019-04-16T22:42:26.421Z,83.20
2019-04-16T22:45:18.568Z,83.20
2019-04-16T22:47:48.312Z,85.00
2019-04-16T22:50:17.628Z,85.40
2019-04-16T22:52:46.897Z,85.00
2019-04-16T22:55:16.249Z,85.20
2019-04-16T22:57:45.601Z,84.40
2019-04-16T23:00:29.231Z,84.40
2019-04-16T23:02:58.762Z,84.20
2019-04-16T23:05:30.815Z,84.10
2019-04-16T23:07:59.821Z,84.40
2019-04-16T23:10:29.231Z,84.30
2019-04-16T23:13:00.379Z,84.40
2019-04-16T23:15:29.975Z,84.50
2019-04-16T23:17:59.234Z,84.90
2019-04-16T23:20:36.186Z,84.50
2019-04-16T23:23:03.352Z,84.50
2019-04-16T23:25:32.529Z,84.90
2019-04-16T23:28:01.676Z,85.00
2019-04-16T23:30:31.545Z,84.50
2019-04-16T23:33:01.543Z,84.70
2019-04-16T23:35:31.227Z,85.00
2019-04-16T23:38:01.053Z,84.90
2019-04-16T23:40:30.700Z,85.10
2019-04-16T23:43:23.045Z,85.50
2019-04-16T23:46:10.276Z,86.00
2019-04-16T23:49:04.867Z,86.20
2019-04-16T23:52:01.749Z,86.20
2019-04-16T23:54:36.641Z,86.30
2019-04-16T23:57:16.104Z,86.30
